sensor_id;sensor_type;location;lat;lon;timestamp;P1;durP1;ratioP1;P2;durP2;ratioP2
13331;SDS011;6735;51.456;12.626;2023-12-14T00:01:38;15.00;;;7.87;;
13331;SDS011;6735;51.456;12.626;2023-12-14T00:04:05;18.23;;;8.67;;
13331;SDS011;6735;51.456;12.626;2023-12-14T00:06:30;18.43;;;7.50;;
13331;SDS011;6735;51.456;12.626;2023-12-14T00:08:56;23.53;;;8.73;;
13331;SDS011;6735;51.456;12.626;2023-12-14T00:11:21;50.00;;;9.07;;
13331;SDS011;6735;51.456;12.626;2023-12-14T00:13:47;34.17;;;10.37;;
13331;SDS011;6735;51.456;12.626;2023-12-14T00:16:12;16.57;;;8.63;;
13331;SDS011;6735;51.456;12.626;2023-12-14T00:18:38;46.37;;;9.57;;
13331;SDS011;6735;51.456;12.626;2023-12-14T00:21:03;25.67;;;8.87;;
13331;SDS011;6735;51.456;12.626;2023-12-14T00:23:29;43.80;;;9.03;;
13331;SDS011;6735;51.456;12.626;2023-12-14T00:25:55;30.50;;;8.93;;
13331;SDS011;6735;51.456;12.626;2023-12-14T00:28:21;25.03;;;8.83;;
13331;SDS011;6735;51.456;12.626;2023-12-14T00:30:47;74.00;;;10.17;;
13331;SDS011;6735;51.456;12.626;2023-12-14T00:33:13;30.10;;;8.90;;
13331;SDS011;6735;51.456;12.626;2023-12-14T00:35:38;32.77;;;7.90;;
13331;SDS011;6735;51.456;12.626;2023-12-14T00:38:03;31.07;;;8.70;;
13331;SDS011;6735;51.456;12.626;2023-12-14T00:40:29;35.50;;;10.17;;
13331;SDS011;6735;51.456;12.626;2023-12-14T00:42:54;55.50;;;9.97;;
13331;SDS011;6735;51.456;12.626;2023-12-14T00:45:20;30.07;;;9.40;;
13331;SDS011;6735;51.456;12.626;2023-12-14T00:47:45;32.57;;;9.23;;
13331;SDS011;6735;51.456;12.626;2023-12-14T00:50:11;55.60;;;10.43;;
13331;SDS011;6735;51.456;12.626;2023-12-14T00:52:36;45.73;;;9.33;;
13331;SDS011;6735;51.456;12.626;2023-12-14T00:55:02;37.57;;;9.73;;
13331;SDS011;6735;51.456;12.626;2023-12-14T00:57:27;25.80;;;9.13;;
13331;SDS011;6735;51.456;12.626;2023-12-14T00:59:53;33.70;;;9.93;;
13331;SDS011;6735;51.456;12.626;2023-12-14T01:02:19;27.83;;;8.27;;
13331;SDS011;6735;51.456;12.626;2023-12-14T01:04:44;30.47;;;8.53;;
13331;SDS011;6735;51.456;12.626;2023-12-14T01:07:10;38.50;;;8.33;;
13331;SDS011;6735;51.456;12.626;2023-12-14T01:09:35;42.57;;;9.63;;
13331;SDS011;6735;51.456;12.626;2023-12-14T01:12:01;37.27;;;9.47;;
13331;SDS011;6735;51.456;12.626;2023-12-14T01:14:26;51.13;;;10.63;;
13331;SDS011;6735;51.456;12.626;2023-12-14T01:16:52;25.73;;;8.77;;
13331;SDS011;6735;51.456;12.626;2023-12-14T01:19:17;34.40;;;9.47;;
13331;SDS011;6735;51.456;12.626;2023-12-14T01:21:42;43.93;;;9.50;;
13331;SDS011;6735;51.456;12.626;2023-12-14T01:24:08;46.13;;;9.90;;
13331;SDS011;6735;51.456;12.626;2023-12-14T01:26:34;32.73;;;9.67;;
13331;SDS011;6735;51.456;12.626;2023-12-14T01:28:59;26.63;;;9.83;;
13331;SDS011;6735;51.456;12.626;2023-12-14T01:31:25;31.87;;;10.00;;
13331;SDS011;6735;51.456;12.626;2023-12-14T01:33:51;30.43;;;9.57;;
13331;SDS011;6735;51.456;12.626;2023-12-14T01:36:26;28.27;;;10.43;;
13331;SDS011;6735;51.456;12.626;2023-12-14T01:38:52;28.77;;;9.90;;
13331;SDS011;6735;51.456;12.626;2023-12-14T01:41:17;36.73;;;10.13;;
13331;SDS011;6735;51.456;12.626;2023-12-14T01:43:43;32.97;;;10.13;;
13331;SDS011;6735;51.456;12.626;2023-12-14T01:46:09;32.20;;;10.43;;
13331;SDS011;6735;51.456;12.626;2023-12-14T01:48:35;29.17;;;10.17;;
13331;SDS011;6735;51.456;12.626;2023-12-14T01:51:00;32.03;;;10.77;;
13331;SDS011;6735;51.456;12.626;2023-12-14T01:53:26;30.77;;;9.53;;
13331;SDS011;6735;51.456;12.626;2023-12-14T01:55:52;34.70;;;9.57;;
13331;SDS011;6735;51.456;12.626;2023-12-14T01:58:17;25.63;;;8.93;;
13331;SDS011;6735;51.456;12.626;2023-12-14T02:00:49;27.13;;;9.97;;
13331;SDS011;6735;51.456;12.626;2023-12-14T02:03:34;25.33;;;9.30;;
13331;SDS011;6735;51.456;12.626;2023-12-14T02:05:59;21.27;;;9.77;;
13331;SDS011;6735;51.456;12.626;2023-12-14T02:08:25;31.10;;;9.87;;
13331;SDS011;6735;51.456;12.626;2023-12-14T02:10:52;26.97;;;9.57;;
13331;SDS011;6735;51.456;12.626;2023-12-14T02:13:17;22.73;;;10.10;;
13331;SDS011;6735;51.456;12.626;2023-12-14T02:15:43;26.63;;;9.60;;
13331;SDS011;6735;51.456;12.626;2023-12-14T02:18:08;24.23;;;9.33;;
13331;SDS011;6735;51.456;12.626;2023-12-14T02:20:34;28.33;;;10.37;;
13331;SDS011;6735;51.456;12.626;2023-12-14T02:22:59;26.60;;;9.93;;
13331;SDS011;6735;51.456;12.626;2023-12-14T02:25:26;25.20;;;11.03;;
13331;SDS011;6735;51.456;12.626;2023-12-14T02:27:52;34.43;;;10.83;;
13331;SDS011;6735;51.456;12.626;2023-12-14T02:30:18;24.63;;;9.97;;
13331;SDS011;6735;51.456;12.626;2023-12-14T02:32:43;25.87;;;10.30;;
13331;SDS011;6735;51.456;12.626;2023-12-14T02:35:09;29.67;;;10.43;;
13331;SDS011;6735;51.456;12.626;2023-12-14T02:37:35;26.17;;;9.77;;
13331;SDS011;6735;51.456;12.626;2023-12-14T02:40:02;27.07;;;10.50;;
13331;SDS011;6735;51.456;12.626;2023-12-14T02:42:30;37.13;;;11.17;;
13331;SDS011;6735;51.456;12.626;2023-12-14T02:44:56;38.17;;;10.40;;
13331;SDS011;6735;51.456;12.626;2023-12-14T02:47:21;33.00;;;11.00;;
13331;SDS011;6735;51.456;12.626;2023-12-14T02:49:47;28.53;;;9.47;;
13331;SDS011;6735;51.456;12.626;2023-12-14T02:52:12;27.60;;;10.10;;
13331;SDS011;6735;51.456;12.626;2023-12-14T02:54:38;31.00;;;10.97;;
13331;SDS011;6735;51.456;12.626;2023-12-14T02:57:04;29.33;;;10.40;;
13331;SDS011;6735;51.456;12.626;2023-12-14T02:59:29;25.40;;;9.80;;
13331;SDS011;6735;51.456;12.626;2023-12-14T03:01:55;25.43;;;10.53;;
13331;SDS011;6735;51.456;12.626;2023-12-14T03:04:20;24.43;;;10.13;;
13331;SDS011;6735;51.456;12.626;2023-12-14T03:06:46;26.93;;;10.47;;
13331;SDS011;6735;51.456;12.626;2023-12-14T03:09:11;28.20;;;10.10;;
13331;SDS011;6735;51.456;12.626;2023-12-14T03:11:37;24.27;;;9.70;;
13331;SDS011;6735;51.456;12.626;2023-12-14T03:14:02;24.00;;;9.80;;
13331;SDS011;6735;51.456;12.626;2023-12-14T03:16:28;24.33;;;9.50;;
13331;SDS011;6735;51.456;12.626;2023-12-14T03:18:54;22.17;;;8.87;;
13331;SDS011;6735;51.456;12.626;2023-12-14T03:21:20;22.97;;;9.17;;
13331;SDS011;6735;51.456;12.626;2023-12-14T03:23:45;23.27;;;9.67;;
13331;SDS011;6735;51.456;12.626;2023-12-14T03:26:11;23.47;;;8.67;;
13331;SDS011;6735;51.456;12.626;2023-12-14T03:28:36;18.77;;;8.97;;
13331;SDS011;6735;51.456;12.626;2023-12-14T03:31:02;20.50;;;8.67;;
13331;SDS011;6735;51.456;12.626;2023-12-14T03:33:28;26.63;;;9.27;;
13331;SDS011;6735;51.456;12.626;2023-12-14T03:35:54;23.67;;;9.07;;
13331;SDS011;6735;51.456;12.626;2023-12-14T03:38:20;21.90;;;8.73;;
13331;SDS011;6735;51.456;12.626;2023-12-14T03:40:45;21.50;;;10.07;;
13331;SDS011;6735;51.456;12.626;2023-12-14T03:43:11;14.67;;;8.30;;
13331;SDS011;6735;51.456;12.626;2023-12-14T03:45:37;16.70;;;9.57;;
13331;SDS011;6735;51.456;12.626;2023-12-14T03:48:03;14.03;;;8.40;;
13331;SDS011;6735;51.456;12.626;2023-12-14T03:50:28;17.50;;;9.97;;
13331;SDS011;6735;51.456;12.626;2023-12-14T03:52:54;14.20;;;9.07;;
13331;SDS011;6735;51.456;12.626;2023-12-14T03:55:19;15.90;;;8.87;;
13331;SDS011;6735;51.456;12.626;2023-12-14T03:57:45;16.80;;;9.63;;
13331;SDS011;6735;51.456;12.626;2023-12-14T04:00:13;14.70;;;8.80;;
13331;SDS011;6735;51.456;12.626;2023-12-14T04:02:39;15.97;;;9.30;;
13331;SDS011;6735;51.456;12.626;2023-12-14T04:05:10;14.53;;;9.07;;
13331;SDS011;6735;51.456;12.626;2023-12-14T04:07:36;16.73;;;9.67;;
13331;SDS011;6735;51.456;12.626;2023-12-14T04:10:02;15.33;;;9.37;;
13331;SDS011;6735;51.456;12.626;2023-12-14T04:12:27;17.13;;;10.23;;
13331;SDS011;6735;51.456;12.626;2023-12-14T04:14:53;13.03;;;9.27;;
13331;SDS011;6735;51.456;12.626;2023-12-14T04:17:18;15.60;;;9.60;;
13331;SDS011;6735;51.456;12.626;2023-12-14T04:19:44;14.97;;;8.93;;
13331;SDS011;6735;51.456;12.626;2023-12-14T04:22:09;14.23;;;9.53;;
13331;SDS011;6735;51.456;12.626;2023-12-14T04:24:35;16.37;;;9.53;;
13331;SDS011;6735;51.456;12.626;2023-12-14T04:27:00;13.50;;;9.43;;
13331;SDS011;6735;51.456;12.626;2023-12-14T04:29:26;16.53;;;8.97;;
13331;SDS011;6735;51.456;12.626;2023-12-14T04:31:51;15.47;;;9.80;;
13331;SDS011;6735;51.456;12.626;2023-12-14T04:34:18;17.23;;;9.70;;
13331;SDS011;6735;51.456;12.626;2023-12-14T04:36:44;18.50;;;10.70;;
13331;SDS011;6735;51.456;12.626;2023-12-14T04:39:10;16.23;;;9.57;;
13331;SDS011;6735;51.456;12.626;2023-12-14T04:41:35;17.23;;;9.60;;
13331;SDS011;6735;51.456;12.626;2023-12-14T04:44:01;16.83;;;9.50;;
13331;SDS011;6735;51.456;12.626;2023-12-14T04:46:26;16.40;;;9.73;;
13331;SDS011;6735;51.456;12.626;2023-12-14T04:48:52;15.67;;;9.63;;
13331;SDS011;6735;51.456;12.626;2023-12-14T04:51:17;14.60;;;9.33;;
13331;SDS011;6735;51.456;12.626;2023-12-14T04:53:43;18.33;;;10.77;;
13331;SDS011;6735;51.456;12.626;2023-12-14T04:56:11;17.93;;;10.37;;
13331;SDS011;6735;51.456;12.626;2023-12-14T04:58:38;18.33;;;10.03;;
13331;SDS011;6735;51.456;12.626;2023-12-14T05:01:04;17.33;;;10.50;;
13331;SDS011;6735;51.456;12.626;2023-12-14T05:03:30;17.87;;;10.27;;
13331;SDS011;6735;51.456;12.626;2023-12-14T05:05:56;16.00;;;10.20;;
13331;SDS011;6735;51.456;12.626;2023-12-14T05:08:21;16.90;;;10.10;;
13331;SDS011;6735;51.456;12.626;2023-12-14T05:10:47;19.87;;;12.50;;
13331;SDS011;6735;51.456;12.626;2023-12-14T05:13:12;16.53;;;10.27;;
13331;SDS011;6735;51.456;12.626;2023-12-14T05:15:38;18.17;;;12.03;;
13331;SDS011;6735;51.456;12.626;2023-12-14T05:18:03;18.37;;;12.40;;
13331;SDS011;6735;51.456;12.626;2023-12-14T05:20:29;19.13;;;11.87;;
13331;SDS011;6735;51.456;12.626;2023-12-14T05:22:54;16.88;;;11.70;;
13331;SDS011;6735;51.456;12.626;2023-12-14T05:25:20;19.95;;;11.57;;
13331;SDS011;6735;51.456;12.626;2023-12-14T05:27:46;15.57;;;9.93;;
13331;SDS011;6735;51.456;12.626;2023-12-14T05:30:11;13.70;;;7.80;;
13331;SDS011;6735;51.456;12.626;2023-12-14T05:32:37;16.42;;;10.70;;
13331;SDS011;6735;51.456;12.626;2023-12-14T05:35:03;16.07;;;9.97;;
13331;SDS011;6735;51.456;12.626;2023-12-14T05:37:28;13.03;;;9.53;;
13331;SDS011;6735;51.456;12.626;2023-12-14T05:39:54;12.90;;;7.97;;
13331;SDS011;6735;51.456;12.626;2023-12-14T05:42:19;12.80;;;8.13;;
13331;SDS011;6735;51.456;12.626;2023-12-14T05:44:45;10.33;;;6.97;;
13331;SDS011;6735;51.456;12.626;2023-12-14T05:47:10;12.20;;;7.17;;
13331;SDS011;6735;51.456;12.626;2023-12-14T05:49:36;12.57;;;6.73;;
13331;SDS011;6735;51.456;12.626;2023-12-14T05:52:02;12.07;;;6.30;;
13331;SDS011;6735;51.456;12.626;2023-12-14T05:54:28;8.77;;;6.27;;
13331;SDS011;6735;51.456;12.626;2023-12-14T05:56:53;11.27;;;6.63;;
13331;SDS011;6735;51.456;12.626;2023-12-14T05:59:19;11.17;;;7.03;;
13331;SDS011;6735;51.456;12.626;2023-12-14T06:01:44;11.47;;;6.27;;
13331;SDS011;6735;51.456;12.626;2023-12-14T06:04:10;12.07;;;7.03;;
13331;SDS011;6735;51.456;12.626;2023-12-14T06:06:37;9.73;;;6.07;;
13331;SDS011;6735;51.456;12.626;2023-12-14T06:09:04;15.60;;;8.43;;
13331;SDS011;6735;51.456;12.626;2023-12-14T06:11:31;12.47;;;7.67;;
13331;SDS011;6735;51.456;12.626;2023-12-14T06:13:57;10.77;;;6.90;;
13331;SDS011;6735;51.456;12.626;2023-12-14T06:16:22;17.40;;;9.63;;
13331;SDS011;6735;51.456;12.626;2023-12-14T06:18:48;16.03;;;8.70;;
13331;SDS011;6735;51.456;12.626;2023-12-14T06:21:13;14.23;;;8.07;;
13331;SDS011;6735;51.456;12.626;2023-12-14T06:23:39;11.70;;;6.50;;
13331;SDS011;6735;51.456;12.626;2023-12-14T06:26:04;11.13;;;6.63;;
13331;SDS011;6735;51.456;12.626;2023-12-14T06:28:30;11.80;;;6.30;;
13331;SDS011;6735;51.456;12.626;2023-12-14T06:30:56;9.40;;;6.03;;
13331;SDS011;6735;51.456;12.626;2023-12-14T06:33:21;11.13;;;6.20;;
13331;SDS011;6735;51.456;12.626;2023-12-14T06:35:47;10.37;;;6.70;;
13331;SDS011;6735;51.456;12.626;2023-12-14T06:38:12;10.37;;;6.40;;
13331;SDS011;6735;51.456;12.626;2023-12-14T06:40:38;14.33;;;7.70;;
13331;SDS011;6735;51.456;12.626;2023-12-14T06:43:06;12.50;;;7.57;;
13331;SDS011;6735;51.456;12.626;2023-12-14T06:45:32;17.57;;;7.90;;
13331;SDS011;6735;51.456;12.626;2023-12-14T06:47:57;15.10;;;8.30;;
13331;SDS011;6735;51.456;12.626;2023-12-14T06:50:22;15.57;;;8.37;;
13331;SDS011;6735;51.456;12.626;2023-12-14T06:52:48;17.13;;;8.83;;
13331;SDS011;6735;51.456;12.626;2023-12-14T06:55:13;18.63;;;9.17;;
13331;SDS011;6735;51.456;12.626;2023-12-14T06:57:42;16.30;;;7.80;;
13331;SDS011;6735;51.456;12.626;2023-12-14T07:00:08;17.63;;;8.63;;
13331;SDS011;6735;51.456;12.626;2023-12-14T07:02:34;16.77;;;8.60;;
13331;SDS011;6735;51.456;12.626;2023-12-14T07:05:00;18.80;;;8.80;;
13331;SDS011;6735;51.456;12.626;2023-12-14T07:07:25;18.60;;;8.77;;
13331;SDS011;6735;51.456;12.626;2023-12-14T07:09:51;21.70;;;8.23;;
13331;SDS011;6735;51.456;12.626;2023-12-14T07:12:16;20.37;;;9.37;;
13331;SDS011;6735;51.456;12.626;2023-12-14T07:14:42;20.30;;;9.60;;
13331;SDS011;6735;51.456;12.626;2023-12-14T07:17:08;19.00;;;8.73;;
13331;SDS011;6735;51.456;12.626;2023-12-14T07:19:34;16.80;;;9.53;;
13331;SDS011;6735;51.456;12.626;2023-12-14T07:22:00;16.67;;;8.93;;
13331;SDS011;6735;51.456;12.626;2023-12-14T07:24:26;17.57;;;9.33;;
13331;SDS011;6735;51.456;12.626;2023-12-14T07:26:51;14.33;;;8.63;;
13331;SDS011;6735;51.456;12.626;2023-12-14T07:29:17;14.20;;;8.30;;
13331;SDS011;6735;51.456;12.626;2023-12-14T07:31:42;13.97;;;8.60;;
13331;SDS011;6735;51.456;12.626;2023-12-14T07:34:08;15.77;;;9.50;;
13331;SDS011;6735;51.456;12.626;2023-12-14T07:36:33;14.20;;;7.93;;
13331;SDS011;6735;51.456;12.626;2023-12-14T07:38:59;14.40;;;8.53;;
13331;SDS011;6735;51.456;12.626;2023-12-14T07:41:26;14.10;;;8.40;;
13331;SDS011;6735;51.456;12.626;2023-12-14T07:43:54;15.10;;;9.20;;
13331;SDS011;6735;51.456;12.626;2023-12-14T07:46:20;15.97;;;9.07;;
13331;SDS011;6735;51.456;12.626;2023-12-14T07:48:46;14.40;;;8.83;;
13331;SDS011;6735;51.456;12.626;2023-12-14T07:51:11;14.57;;;8.27;;
13331;SDS011;6735;51.456;12.626;2023-12-14T07:53:37;15.67;;;8.40;;
13331;SDS011;6735;51.456;12.626;2023-12-14T07:56:02;16.90;;;8.30;;
13331;SDS011;6735;51.456;12.626;2023-12-14T07:58:28;16.67;;;9.77;;
13331;SDS011;6735;51.456;12.626;2023-12-14T08:00:54;14.67;;;7.93;;
13331;SDS011;6735;51.456;12.626;2023-12-14T08:03:19;16.20;;;9.27;;
13331;SDS011;6735;51.456;12.626;2023-12-14T08:05:45;17.73;;;8.90;;
13331;SDS011;6735;51.456;12.626;2023-12-14T08:08:10;16.37;;;9.17;;
13331;SDS011;6735;51.456;12.626;2023-12-14T08:10:36;15.97;;;9.67;;
13331;SDS011;6735;51.456;12.626;2023-12-14T08:13:01;17.03;;;8.97;;
13331;SDS011;6735;51.456;12.626;2023-12-14T08:15:27;17.10;;;9.70;;
13331;SDS011;6735;51.456;12.626;2023-12-14T08:17:52;17.60;;;10.00;;
13331;SDS011;6735;51.456;12.626;2023-12-14T08:20:18;17.57;;;8.83;;
13331;SDS011;6735;51.456;12.626;2023-12-14T08:22:43;16.10;;;9.03;;
13331;SDS011;6735;51.456;12.626;2023-12-14T08:25:11;15.80;;;9.53;;
13331;SDS011;6735;51.456;12.626;2023-12-14T08:27:38;15.97;;;9.70;;
13331;SDS011;6735;51.456;12.626;2023-12-14T08:30:04;15.57;;;9.67;;
13331;SDS011;6735;51.456;12.626;2023-12-14T08:32:30;14.10;;;8.47;;
13331;SDS011;6735;51.456;12.626;2023-12-14T08:34:55;14.43;;;9.37;;
13331;SDS011;6735;51.456;12.626;2023-12-14T08:37:21;14.73;;;8.70;;
13331;SDS011;6735;51.456;12.626;2023-12-14T08:39:46;14.73;;;8.53;;
13331;SDS011;6735;51.456;12.626;2023-12-14T08:42:12;12.10;;;7.93;;
13331;SDS011;6735;51.456;12.626;2023-12-14T08:44:40;13.27;;;8.07;;
13331;SDS011;6735;51.456;12.626;2023-12-14T08:47:06;13.17;;;8.00;;
13331;SDS011;6735;51.456;12.626;2023-12-14T08:49:33;15.13;;;8.80;;
13331;SDS011;6735;51.456;12.626;2023-12-14T08:51:59;16.53;;;8.57;;
13331;SDS011;6735;51.456;12.626;2023-12-14T08:54:25;13.47;;;8.33;;
13331;SDS011;6735;51.456;12.626;2023-12-14T08:56:50;14.73;;;8.77;;
13331;SDS011;6735;51.456;12.626;2023-12-14T08:59:16;15.47;;;9.03;;
13331;SDS011;6735;51.456;12.626;2023-12-14T09:01:41;13.50;;;8.63;;
13331;SDS011;6735;51.456;12.626;2023-12-14T09:04:07;14.73;;;9.47;;
13331;SDS011;6735;51.456;12.626;2023-12-14T09:06:32;13.53;;;8.67;;
13331;SDS011;6735;51.456;12.626;2023-12-14T09:08:58;14.17;;;8.30;;
13331;SDS011;6735;51.456;12.626;2023-12-14T09:11:23;15.83;;;8.77;;
13331;SDS011;6735;51.456;12.626;2023-12-14T09:13:49;14.40;;;9.10;;
13331;SDS011;6735;51.456;12.626;2023-12-14T09:16:15;15.37;;;9.37;;
13331;SDS011;6735;51.456;12.626;2023-12-14T09:18:41;12.23;;;8.67;;
13331;SDS011;6735;51.456;12.626;2023-12-14T09:21:07;13.20;;;8.27;;
13331;SDS011;6735;51.456;12.626;2023-12-14T09:23:32;14.23;;;9.00;;
13331;SDS011;6735;51.456;12.626;2023-12-14T09:25:58;13.63;;;8.13;;
13331;SDS011;6735;51.456;12.626;2023-12-14T09:28:24;14.47;;;9.13;;
13331;SDS011;6735;51.456;12.626;2023-12-14T09:30:50;14.87;;;9.97;;
13331;SDS011;6735;51.456;12.626;2023-12-14T09:33:15;13.70;;;8.93;;
13331;SDS011;6735;51.456;12.626;2023-12-14T09:35:41;16.47;;;10.07;;
13331;SDS011;6735;51.456;12.626;2023-12-14T09:38:07;14.03;;;9.70;;
13331;SDS011;6735;51.456;12.626;2023-12-14T09:40:33;15.83;;;9.53;;
13331;SDS011;6735;51.456;12.626;2023-12-14T09:42:59;15.63;;;9.33;;
13331;SDS011;6735;51.456;12.626;2023-12-14T09:45:27;14.87;;;8.67;;
13331;SDS011;6735;51.456;12.626;2023-12-14T09:47:54;15.07;;;8.83;;
13331;SDS011;6735;51.456;12.626;2023-12-14T09:50:23;14.53;;;8.60;;
13331;SDS011;6735;51.456;12.626;2023-12-14T09:52:49;11.13;;;7.40;;
13331;SDS011;6735;51.456;12.626;2023-12-14T09:55:15;14.53;;;8.87;;
13331;SDS011;6735;51.456;12.626;2023-12-14T09:57:41;13.53;;;8.13;;
13331;SDS011;6735;51.456;12.626;2023-12-14T10:00:06;16.30;;;8.37;;
13331;SDS011;6735;51.456;12.626;2023-12-14T10:02:36;13.47;;;8.20;;
13331;SDS011;6735;51.456;12.626;2023-12-14T10:05:02;16.23;;;8.70;;
13331;SDS011;6735;51.456;12.626;2023-12-14T10:07:28;14.43;;;8.83;;
13331;SDS011;6735;51.456;12.626;2023-12-14T10:09:56;14.40;;;7.73;;
13331;SDS011;6735;51.456;12.626;2023-12-14T10:12:49;12.47;;;7.53;;
13331;SDS011;6735;51.456;12.626;2023-12-14T10:15:19;15.37;;;7.93;;
13331;SDS011;6735;51.456;12.626;2023-12-14T10:17:44;12.07;;;7.43;;
13331;SDS011;6735;51.456;12.626;2023-12-14T10:20:18;12.03;;;7.23;;
13331;SDS011;6735;51.456;12.626;2023-12-14T10:22:47;14.33;;;8.70;;
13331;SDS011;6735;51.456;12.626;2023-12-14T10:25:19;11.37;;;6.93;;
13331;SDS011;6735;51.456;12.626;2023-12-14T10:27:46;12.13;;;7.20;;
13331;SDS011;6735;51.456;12.626;2023-12-14T10:30:12;13.80;;;8.10;;
13331;SDS011;6735;51.456;12.626;2023-12-14T10:32:38;11.83;;;7.17;;
13331;SDS011;6735;51.456;12.626;2023-12-14T10:35:06;11.23;;;6.73;;
13331;SDS011;6735;51.456;12.626;2023-12-14T10:37:31;14.07;;;6.57;;
13331;SDS011;6735;51.456;12.626;2023-12-14T10:40:00;12.97;;;7.43;;
13331;SDS011;6735;51.456;12.626;2023-12-14T10:42:27;12.77;;;6.60;;
13331;SDS011;6735;51.456;12.626;2023-12-14T10:44:53;12.60;;;7.97;;
13331;SDS011;6735;51.456;12.626;2023-12-14T10:47:20;15.57;;;8.47;;
13331;SDS011;6735;51.456;12.626;2023-12-14T10:49:46;17.20;;;9.17;;
13331;SDS011;6735;51.456;12.626;2023-12-14T10:52:16;34.70;;;13.50;;
13331;SDS011;6735;51.456;12.626;2023-12-14T10:54:42;38.30;;;15.70;;
13331;SDS011;6735;51.456;12.626;2023-12-14T10:57:10;14.93;;;8.70;;
13331;SDS011;6735;51.456;12.626;2023-12-14T10:59:36;15.13;;;9.33;;
13331;SDS011;6735;51.456;12.626;2023-12-14T11:02:06;13.70;;;8.90;;
13331;SDS011;6735;51.456;12.626;2023-12-14T11:04:53;12.17;;;6.60;;
13331;SDS011;6735;51.456;12.626;2023-12-14T11:10:15;11.00;;;7.13;;
13331;SDS011;6735;51.456;12.626;2023-12-14T11:12:50;8.50;;;6.10;;
13331;SDS011;6735;51.456;12.626;2023-12-14T11:15:37;7.10;;;5.80;;
13331;SDS011;6735;51.456;12.626;2023-12-14T11:23:17;8.73;;;5.63;;
13331;SDS011;6735;51.456;12.626;2023-12-14T11:25:50;8.17;;;5.53;;
13331;SDS011;6735;51.456;12.626;2023-12-14T11:28:21;7.60;;;5.30;;
13331;SDS011;6735;51.456;12.626;2023-12-14T11:30:47;8.00;;;5.80;;
13331;SDS011;6735;51.456;12.626;2023-12-14T11:33:13;6.80;;;5.33;;
13331;SDS011;6735;51.456;12.626;2023-12-14T11:35:39;8.60;;;5.73;;
13331;SDS011;6735;51.456;12.626;2023-12-14T11:38:05;7.60;;;5.33;;
13331;SDS011;6735;51.456;12.626;2023-12-14T11:40:40;7.57;;;5.30;;
13331;SDS011;6735;51.456;12.626;2023-12-14T11:43:06;6.67;;;5.00;;
13331;SDS011;6735;51.456;12.626;2023-12-14T11:45:33;6.23;;;4.80;;
13331;SDS011;6735;51.456;12.626;2023-12-14T11:47:59;6.03;;;4.70;;
13331;SDS011;6735;51.456;12.626;2023-12-14T11:50:26;8.00;;;5.20;;
13331;SDS011;6735;51.456;12.626;2023-12-14T11:52:52;7.50;;;5.43;;
13331;SDS011;6735;51.456;12.626;2023-12-14T11:55:19;8.23;;;5.30;;
13331;SDS011;6735;51.456;12.626;2023-12-14T11:57:46;7.80;;;5.43;;
13331;SDS011;6735;51.456;12.626;2023-12-14T12:00:13;8.80;;;6.03;;
13331;SDS011;6735;51.456;12.626;2023-12-14T12:02:39;7.43;;;5.27;;
13331;SDS011;6735;51.456;12.626;2023-12-14T12:05:05;7.40;;;4.90;;
13331;SDS011;6735;51.456;12.626;2023-12-14T12:07:31;5.80;;;4.23;;
13331;SDS011;6735;51.456;12.626;2023-12-14T12:09:58;6.47;;;4.77;;
13331;SDS011;6735;51.456;12.626;2023-12-14T12:12:24;5.17;;;4.30;;
13331;SDS011;6735;51.456;12.626;2023-12-14T12:14:49;7.90;;;4.40;;
13331;SDS011;6735;51.456;12.626;2023-12-14T12:17:18;5.90;;;4.57;;
13331;SDS011;6735;51.456;12.626;2023-12-14T12:19:45;6.03;;;4.97;;
13331;SDS011;6735;51.456;12.626;2023-12-14T12:22:10;6.40;;;4.53;;
13331;SDS011;6735;51.456;12.626;2023-12-14T12:24:36;8.00;;;5.33;;
13331;SDS011;6735;51.456;12.626;2023-12-14T12:27:02;6.70;;;5.80;;
13331;SDS011;6735;51.456;12.626;2023-12-14T12:29:29;6.40;;;4.73;;
13331;SDS011;6735;51.456;12.626;2023-12-14T12:31:54;6.23;;;4.70;;
13331;SDS011;6735;51.456;12.626;2023-12-14T12:34:20;6.43;;;4.43;;
13331;SDS011;6735;51.456;12.626;2023-12-14T12:36:45;6.33;;;4.60;;
13331;SDS011;6735;51.456;12.626;2023-12-14T12:39:11;6.60;;;4.97;;
13331;SDS011;6735;51.456;12.626;2023-12-14T12:41:37;8.47;;;5.23;;
13331;SDS011;6735;51.456;12.626;2023-12-14T12:44:03;7.43;;;5.30;;
13331;SDS011;6735;51.456;12.626;2023-12-14T12:46:33;7.77;;;4.67;;
13331;SDS011;6735;51.456;12.626;2023-12-14T12:49:00;6.60;;;4.80;;
13331;SDS011;6735;51.456;12.626;2023-12-14T12:51:26;6.10;;;4.47;;
13331;SDS011;6735;51.456;12.626;2023-12-14T12:53:52;6.97;;;5.03;;
13331;SDS011;6735;51.456;12.626;2023-12-14T12:56:19;7.90;;;4.70;;
13331;SDS011;6735;51.456;12.626;2023-12-14T12:58:44;6.03;;;4.53;;
13331;SDS011;6735;51.456;12.626;2023-12-14T13:01:10;5.80;;;4.47;;
13331;SDS011;6735;51.456;12.626;2023-12-14T13:03:35;6.87;;;5.13;;
13331;SDS011;6735;51.456;12.626;2023-12-14T13:06:01;6.60;;;4.67;;
13331;SDS011;6735;51.456;12.626;2023-12-14T13:08:26;7.00;;;4.60;;
13331;SDS011;6735;51.456;12.626;2023-12-14T13:10:52;6.67;;;4.77;;
13331;SDS011;6735;51.456;12.626;2023-12-14T13:13:18;8.20;;;4.70;;
13331;SDS011;6735;51.456;12.626;2023-12-14T13:15:44;7.57;;;4.47;;
13331;SDS011;6735;51.456;12.626;2023-12-14T13:18:09;9.33;;;4.83;;
13331;SDS011;6735;51.456;12.626;2023-12-14T13:20:35;7.43;;;5.03;;
13331;SDS011;6735;51.456;12.626;2023-12-14T13:23:00;7.47;;;5.13;;
13331;SDS011;6735;51.456;12.626;2023-12-14T13:25:26;10.00;;;6.20;;
13331;SDS011;6735;51.456;12.626;2023-12-14T13:27:51;15.00;;;6.43;;
13331;SDS011;6735;51.456;12.626;2023-12-14T13:30:17;9.00;;;5.97;;
13331;SDS011;6735;51.456;12.626;2023-12-14T13:32:43;8.90;;;5.33;;
13331;SDS011;6735;51.456;12.626;2023-12-14T13:35:08;8.33;;;5.80;;
13331;SDS011;6735;51.456;12.626;2023-12-14T13:37:34;7.70;;;5.87;;
13331;SDS011;6735;51.456;12.626;2023-12-14T13:40:00;8.33;;;5.37;;
13331;SDS011;6735;51.456;12.626;2023-12-14T13:42:25;10.47;;;6.17;;
13331;SDS011;6735;51.456;12.626;2023-12-14T13:44:51;9.67;;;6.40;;
13331;SDS011;6735;51.456;12.626;2023-12-14T13:47:16;10.70;;;6.33;;
13331;SDS011;6735;51.456;12.626;2023-12-14T13:49:42;10.93;;;7.17;;
13331;SDS011;6735;51.456;12.626;2023-12-14T13:52:07;15.53;;;8.83;;
13331;SDS011;6735;51.456;12.626;2023-12-14T13:54:34;10.23;;;7.37;;
13331;SDS011;6735;51.456;12.626;2023-12-14T13:57:01;10.03;;;6.63;;
13331;SDS011;6735;51.456;12.626;2023-12-14T13:59:27;8.90;;;7.00;;
13331;SDS011;6735;51.456;12.626;2023-12-14T14:01:52;9.07;;;6.27;;
13331;SDS011;6735;51.456;12.626;2023-12-14T14:04:18;11.57;;;6.53;;
13331;SDS011;6735;51.456;12.626;2023-12-14T14:06:43;10.17;;;6.90;;
13331;SDS011;6735;51.456;12.626;2023-12-14T14:09:09;9.57;;;5.77;;
13331;SDS011;6735;51.456;12.626;2023-12-14T14:11:35;10.17;;;6.63;;
13331;SDS011;6735;51.456;12.626;2023-12-14T14:14:01;10.13;;;6.37;;
13331;SDS011;6735;51.456;12.626;2023-12-14T14:16:27;10.37;;;6.37;;
13331;SDS011;6735;51.456;12.626;2023-12-14T14:18:52;10.50;;;6.47;;
13331;SDS011;6735;51.456;12.626;2023-12-14T14:21:18;9.13;;;6.27;;
13331;SDS011;6735;51.456;12.626;2023-12-14T14:23:43;13.30;;;6.77;;
13331;SDS011;6735;51.456;12.626;2023-12-14T14:26:09;9.93;;;6.60;;
13331;SDS011;6735;51.456;12.626;2023-12-14T14:28:35;10.93;;;7.13;;
13331;SDS011;6735;51.456;12.626;2023-12-14T14:31:00;10.20;;;6.93;;
13331;SDS011;6735;51.456;12.626;2023-12-14T14:33:26;17.43;;;7.87;;
13331;SDS011;6735;51.456;12.626;2023-12-14T14:35:51;13.20;;;8.03;;
13331;SDS011;6735;51.456;12.626;2023-12-14T14:38:17;10.47;;;6.67;;